Time;durP1;ratioP1;P1;durP2;ratioP2;P2;SDS_P1;SDS_P2;PMS_P1;PMS_P2;Temp;Humidity;BMP_temperature;BMP_pressure;BME280_temperature;BME280_humidity;BME280_pressure;Samples;Min_cycle;Max_cycle;Signal;HPM_P1;HPM_P2
2021/09/16 00:00:29;;;;;;;9.77;4.18;;;;;;;20.25;100.00;97383.53;5090008;28;20108;-83
2021/09/16 00:02:58;;;;;;;7.40;3.72;;;;;;;20.16;100.00;97370.09;5089464;28;20016;-85
2021/09/16 00:05:25;;;;;;;8.73;4.40;;;;;;;20.10;100.00;97379.91;5052728;28;20047;-83
2021/09/16 00:07:52;;;;;;;8.68;4.25;;;;;;;20.13;100.00;97370.88;5068910;28;20171;-84
2021/09/16 00:10:18;;;;;;;7.43;4.00;;;;;;;20.21;100.00;97380.72;5076287;28;20651;-83
2021/09/16 00:12:45;;;;;;;9.32;4.20;;;;;;;20.25;100.00;97373.34;5068321;28;20485;-83
2021/09/16 00:15:13;;;;;;;10.02;4.10;;;;;;;20.19;100.00;97377.59;5069761;28;20346;-82
2021/09/16 00:17:40;;;;;;;5.78;4.25;;;;;;;20.19;100.00;97376.78;5050625;28;20044;-82
2021/09/16 00:20:08;;;;;;;6.55;3.95;;;;;;;20.20;100.00;97376.44;5050510;28;20052;-83
2021/09/16 00:22:34;;;;;;;7.97;4.40;;;;;;;20.25;100.00;97375.28;5068735;28;20369;-83
2021/09/16 00:25:02;;;;;;;7.63;4.50;;;;;;;20.24;100.00;97384.69;5081174;22;20073;-78
2021/09/16 00:27:28;;;;;;;9.48;4.35;;;;;;;20.15;100.00;97368.53;5074724;28;20044;-82
2021/09/16 00:29:55;;;;;;;12.07;4.20;;;;;;;20.20;100.00;97376.44;5078074;28;20045;-79
2021/09/16 00:32:22;;;;;;;7.93;4.40;;;;;;;20.13;100.00;97373.59;5078240;28;20063;-79
2021/09/16 00:34:51;;;;;;;8.82;4.30;;;;;;;20.15;100.00;97373.25;5075302;28;20048;-81
2021/09/16 00:37:18;;;;;;;9.65;4.88;;;;;;;20.13;100.00;97376.34;5068258;28;20064;-79
2021/09/16 00:39:45;;;;;;;8.05;4.97;;;;;;;19.97;100.00;97386.09;5070583;28;20048;-80
2021/09/16 00:42:16;;;;;;;9.43;5.05;;;;;;;19.90;100.00;97384.84;5071666;28;20056;-80
2021/09/16 00:44:43;;;;;;;9.45;4.93;;;;;;;19.79;100.00;97392.25;5073275;28;20048;-79
2021/09/16 00:47:10;;;;;;;12.57;5.32;;;;;;;19.72;100.00;97388.63;5080125;28;20435;-80
2021/09/16 00:49:37;;;;;;;10.10;5.60;;;;;;;19.78;100.00;97390.66;5069802;28;20044;-80
2021/09/16 00:52:06;;;;;;;9.32;5.15;;;;;;;19.68;100.00;97388.63;5070584;28;20098;-80
2021/09/16 00:54:34;;;;;;;12.48;5.72;;;;;;;19.67;100.00;97394.47;5070170;28;20064;-79
2021/09/16 00:57:02;;;;;;;8.35;5.68;;;;;;;19.70;100.00;97389.00;5074043;28;20098;-80
2021/09/16 00:59:29;;;;;;;11.40;5.60;;;;;;;19.64;100.00;97392.50;5076712;28;20471;-79
2021/09/16 01:01:56;;;;;;;11.27;5.78;;;;;;;19.73;100.00;97396.50;5096664;28;20602;-80
2021/09/16 01:04:28;;;;;;;8.20;5.78;;;;;;;19.67;100.00;97391.72;5076724;28;20131;-81
2021/09/16 01:06:55;;;;;;;11.85;5.82;;;;;;;19.75;100.00;97393.38;5078633;28;20058;-79
2021/09/16 01:09:25;;;;;;;10.77;5.90;;;;;;;19.71;100.00;97398.06;5099764;28;20074;-81
2021/09/16 01:11:53;;;;;;;11.18;5.80;;;;;;;19.70;100.00;97396.47;5100714;28;20040;-80
2021/09/16 01:14:24;;;;;;;10.85;5.90;;;;;;;19.79;100.00;97383.22;5065896;28;20101;-80
2021/09/16 01:16:51;;;;;;;9.63;6.13;;;;;;;19.75;100.00;97394.16;5100913;28;20402;-80
2021/09/16 01:19:19;;;;;;;11.95;6.90;;;;;;;19.72;100.00;97386.66;5099432;28;20096;-81
2021/09/16 01:21:46;;;;;;;12.32;7.20;;;;;;;19.69;100.00;97390.16;5103217;28;20480;-80
2021/09/16 01:24:13;;;;;;;10.57;6.63;;;;;;;19.62;100.00;97394.81;5088685;28;20050;-79
2021/09/16 01:26:43;;;;;;;13.45;6.10;;;;;;;19.63;100.00;97397.19;5089813;28;20484;-80
2021/09/16 01:29:11;;;;;;;10.73;6.53;;;;;;;19.64;100.00;97393.28;5098240;28;20036;-79
2021/09/16 01:31:44;;;;;;;13.35;7.00;;;;;;;19.60;100.00;97386.97;5098451;28;20048;-79
2021/09/16 01:34:13;;;;;;;13.38;8.13;;;;;;;19.62;100.00;97392.06;5082529;28;20071;-78
2021/09/16 01:36:42;;;;;;;11.00;7.65;;;;;;;19.60;100.00;97391.66;5071402;28;20064;-79
2021/09/16 01:39:10;;;;;;;12.45;7.70;;;;;;;19.64;100.00;97390.53;5095201;28;20044;-78
2021/09/16 01:41:37;;;;;;;14.00;7.80;;;;;;;19.57;100.00;97393.22;5097835;28;20474;-79
2021/09/16 01:44:04;;;;;;;13.63;8.30;;;;;;;19.61;100.00;97398.75;5066754;28;20051;-81
2021/09/16 01:46:31;;;;;;;13.35;7.85;;;;;;;19.66;100.00;97390.16;5101717;28;20459;-79
2021/09/16 01:48:59;;;;;;;13.25;7.68;;;;;;;19.59;100.00;97396.38;5084268;28;20048;-81
2021/09/16 01:51:26;;;;;;;12.10;7.82;;;;;;;19.54;100.00;97395.91;5103002;28;20059;-79
2021/09/16 01:53:53;;;;;;;13.43;8.30;;;;;;;19.57;100.00;97393.22;5084924;28;20453;-81
2021/09/16 01:56:21;;;;;;;15.93;8.05;;;;;;;19.59;100.00;97401.09;5084535;28;20067;-81
2021/09/16 01:58:48;;;;;;;22.52;8.38;;;;;;;19.53;100.00;97397.09;5102735;28;20050;-81
2021/09/16 02:01:15;;;;;;;14.40;8.70;;;;;;;19.45;100.00;97404.50;5080193;28;20128;-81
2021/09/16 02:03:42;;;;;;;15.73;9.13;;;;;;;19.38;100.00;97401.69;5098174;28;20135;-81
2021/09/16 02:06:08;;;;;;;16.10;9.32;;;;;;;19.36;100.00;97403.97;5097487;28;20044;-82
2021/09/16 02:08:35;;;;;;;19.23;10.02;;;;;;;19.37;100.00;97408.34;5063857;28;20059;-81
2021/09/16 02:11:01;;;;;;;16.10;10.05;;;;;;;19.33;100.00;97412.94;5077835;28;20048;-82
2021/09/16 02:13:29;;;;;;;23.58;11.55;;;;;;;19.23;100.00;97408.16;5077267;28;20093;-81
2021/09/16 02:15:56;;;;;;;21.92;12.02;;;;;;;19.18;100.00;97403.00;5077609;28;20048;-82
2021/09/16 02:18:22;;;;;;;22.30;13.20;;;;;;;19.17;100.00;97410.47;5098063;28;20039;-83
2021/09/16 02:20:49;;;;;;;23.63;13.02;;;;;;;19.18;100.00;97403.00;5083915;28;20104;-83
2021/09/16 02:23:15;;;;;;;19.63;11.98;;;;;;;19.24;100.00;97415.22;5079242;28;20056;-80
2021/09/16 02:25:42;;;;;;;19.60;12.95;;;;;;;19.35;100.00;97413.38;5081143;28;20135;-81
2021/09/16 02:28:08;;;;;;;18.35;13.15;;;;;;;19.42;100.00;97408.00;5097354;28;20036;-81
2021/09/16 02:30:35;;;;;;;27.25;13.43;;;;;;;19.43;100.00;97417.03;5074014;28;20044;-81
2021/09/16 02:33:04;;;;;;;16.45;11.60;;;;;;;19.25;100.00;97411.31;5074680;28;20479;-79
2021/09/16 02:35:32;;;;;;;20.48;12.55;;;;;;;19.19;100.00;97415.56;5097307;28;20044;-81
2021/09/16 02:38:00;;;;;;;17.08;13.40;;;;;;;19.17;100.00;97417.91;5099801;28;20040;-81
2021/09/16 02:40:27;;;;;;;21.88;14.23;;;;;;;19.17;100.00;97426.94;5082258;28;20048;-80
2021/09/16 02:42:54;;;;;;;23.50;15.38;;;;;;;19.15;100.00;97417.50;5085748;28;20117;-78
2021/09/16 02:45:21;;;;;;;24.95;16.27;;;;;;;19.16;100.00;97416.31;5080361;28;20051;-81
2021/09/16 02:47:49;;;;;;;30.70;17.20;;;;;;;19.20;100.00;97417.16;5073187;28;20553;-80
2021/09/16 02:50:15;;;;;;;25.85;17.38;;;;;;;19.17;100.00;97420.66;5093809;28;20051;-80
2021/09/16 02:52:42;;;;;;;26.42;18.00;;;;;;;19.12;100.00;97418.25;5094520;28;20056;-81
2021/09/16 02:55:15;;;;;;;29.50;19.98;;;;;;;19.05;100.00;97418.94;5079311;28;20131;-80
2021/09/16 02:57:42;;;;;;;31.00;20.80;;;;;;;18.92;100.00;97408.59;5103716;28;20028;-83
2021/09/16 03:00:09;;;;;;;37.67;22.92;;;;;;;19.04;100.00;97427.56;5085477;28;20052;-78
2021/09/16 03:02:36;;;;;;;35.75;22.25;;;;;;;19.14;100.00;97422.19;5103712;28;20040;-79
2021/09/16 03:05:03;;;;;;;36.78;22.30;;;;;;;19.16;100.00;97427.28;5106157;28;20473;-79
2021/09/16 03:07:30;;;;;;;34.22;22.33;;;;;;;19.12;100.00;97424.50;5104353;28;20032;-82
2021/09/16 03:09:58;;;;;;;32.45;21.45;;;;;;;19.14;100.00;97426.88;5085095;28;20066;-81
2021/09/16 03:12:25;;;;;;;32.38;21.65;;;;;;;19.10;100.00;97429.56;5101338;28;20097;-84
2021/09/16 03:14:51;;;;;;;37.67;21.08;;;;;;;19.21;100.00;97429.69;5104422;28;20357;-80
2021/09/16 03:17:17;;;;;;;29.48;21.05;;;;;;;19.25;100.00;97430.53;5114429;28;20040;-79
2021/09/16 03:19:44;;;;;;;32.20;20.40;;;;;;;19.19;100.00;97426.53;5089371;28;20070;-78
2021/09/16 03:22:12;;;;;;;32.65;19.98;;;;;;;19.17;100.00;97428.88;5071812;28;20511;-78
2021/09/16 03:24:39;;;;;;;30.73;20.60;;;;;;;19.05;100.00;97427.16;5076156;28;20074;-78
2021/09/16 03:27:05;;;;;;;30.20;20.90;;;;;;;19.15;100.00;97440.22;5105850;28;20040;-80
2021/09/16 03:29:32;;;;;;;29.38;21.50;;;;;;;19.18;100.00;97444.16;5107367;28;20039;-79
2021/09/16 03:31:58;;;;;;;29.35;20.38;;;;;;;19.19;100.00;97443.00;5101941;28;20501;-81
2021/09/16 03:34:25;;;;;;;28.15;21.02;;;;;;;19.16;100.00;97441.81;5101723;28;20044;-82
2021/09/16 03:36:51;;;;;;;28.48;19.10;;;;;;;19.27;100.00;97442.72;5100562;28;20101;-79
2021/09/16 03:39:18;;;;;;;34.63;22.73;;;;;;;19.22;100.00;97448.56;5068502;28;20065;-81
2021/09/16 03:41:44;;;;;;;33.05;21.13;;;;;;;19.19;100.00;97435.56;5068294;28;20074;-80
2021/09/16 03:44:11;;;;;;;33.17;23.13;;;;;;;19.21;100.00;97440.69;5103197;28;20048;-82
2021/09/16 03:46:37;;;;;;;44.65;26.75;;;;;;;19.20;100.00;97439.13;5103854;28;20074;-81
2021/09/16 03:49:04;;;;;;;39.00;26.13;;;;;;;19.18;100.00;97444.97;5104204;28;20055;-81
2021/09/16 03:51:31;;;;;;;47.10;28.88;;;;;;;19.64;100.00;97448.19;5102392;28;20479;-83
2021/09/16 03:53:57;;;;;;;47.15;29.65;;;;;;;19.75;100.00;97435.34;5102605;28;20123;-82
2021/09/16 03:56:24;;;;;;;44.65;27.65;;;;;;;19.78;100.00;97445.59;5102139;28;20044;-84
2021/09/16 03:58:50;;;;;;;49.45;29.25;;;;;;;19.78;100.00;97442.06;5083680;28;20123;-80
2021/09/16 04:01:17;;;;;;;49.53;29.58;;;;;;;19.71;100.00;97442.78;5101028;28;20310;-82
2021/09/16 04:03:43;;;;;;;54.97;31.02;;;;;;;19.76;100.00;97442.44;5100604;28;20044;-83
2021/09/16 04:06:10;;;;;;;58.50;32.47;;;;;;;19.18;100.00;97447.72;5101159;28;20055;-83
2021/09/16 04:08:36;;;;;;;58.53;33.40;;;;;;;19.04;100.00;97455.78;5100105;28;20458;-80
2021/09/16 04:11:04;;;;;;;54.58;32.88;;;;;;;19.11;100.00;97455.06;5071767;28;20063;-81
2021/09/16 04:13:30;;;;;;;61.50;35.03;;;;;;;19.12;100.00;97451.19;5070915;28;20637;-78
2021/09/16 04:15:59;;;;;;;67.20;35.75;;;;;;;19.05;100.00;97443.63;5090222;28;20051;-83
2021/09/16 04:18:26;;;;;;;61.47;34.58;;;;;;;19.13;100.00;97455.47;5069990;28;20484;-84
2021/09/16 04:20:53;;;;;;;63.95;35.45;;;;;;;19.14;100.00;97448.84;5094323;28;20071;-85
2021/09/16 04:23:20;;;;;;;70.03;36.40;;;;;;;19.13;100.00;97448.03;5078886;28;20044;-83
2021/09/16 04:25:50;;;;;;;68.75;37.30;;;;;;;19.12;100.00;97456.66;5079795;28;20059;-82
2021/09/16 04:28:19;;;;;;;70.00;37.67;;;;;;;19.18;100.00;97455.13;5080662;28;20264;-83
2021/09/16 04:30:46;;;;;;;67.22;35.97;;;;;;;19.18;100.00;97455.13;5079844;28;20372;-82
2021/09/16 04:33:12;;;;;;;68.43;37.90;;;;;;;19.08;100.00;97464.84;5076901;28;20484;-83
2021/09/16 04:35:39;;;;;;;80.22;39.90;;;;;;;19.07;100.00;97474.22;5086289;28;20131;-84
2021/09/16 04:38:06;;;;;;;72.10;39.85;;;;;;;19.13;100.00;97472.75;5082351;28;20531;-82
2021/09/16 04:40:32;;;;;;;72.30;37.35;;;;;;;19.14;100.00;97454.31;5073839;28;20044;-84
2021/09/16 04:43:03;;;;;;;62.65;35.65;;;;;;;19.07;100.00;97473.47;5061220;28;20055;-82
2021/09/16 04:45:29;;;;;;;68.28;36.00;;;;;;;19.00;100.00;97465.91;5055469;28;20052;-83
2021/09/16 04:47:56;;;;;;;70.05;36.42;;;;;;;18.95;100.00;97471.72;5056307;28;20040;-82
2021/09/16 04:50:23;;;;;;;66.10;34.75;;;;;;;18.98;100.00;97464.72;5056634;28;20515;-83
2021/09/16 04:52:50;;;;;;;68.20;35.90;;;;;;;18.88;100.00;97460.69;5074851;28;20036;-81
2021/09/16 04:55:16;;;;;;;74.53;37.63;;;;;;;18.99;100.00;97472.59;5076012;28;20040;-82
2021/09/16 04:57:43;;;;;;;81.28;39.67;;;;;;;18.99;100.00;97466.31;5053680;28;20037;-82
2021/09/16 05:00:11;;;;;;;86.63;41.95;;;;;;;19.02;100.00;97469.06;5060430;28;20040;-80
2021/09/16 05:02:38;;;;;;;91.72;42.22;;;;;;;18.99;100.00;97477.28;5048915;28;20048;-81
2021/09/16 05:05:05;;;;;;;85.18;40.88;;;;;;;19.04;100.00;97485.19;5068759;28;20041;-81
2021/09/16 05:07:32;;;;;;;85.60;41.30;;;;;;;18.86;100.00;97484.97;5068859;28;20059;-84
2021/09/16 05:09:59;;;;;;;79.97;40.28;;;;;;;18.84;100.00;97487.25;5049709;28;20048;-84
2021/09/16 05:12:27;;;;;;;84.72;41.45;;;;;;;18.87;100.00;97502.19;5034165;28;20076;-84
2021/09/16 05:14:57;;;;;;;87.30;42.08;;;;;;;18.59;100.00;97492.41;5035273;28;20040;-83
2021/09/16 05:17:25;;;;;;;96.72;42.67;;;;;;;18.60;100.00;97501.44;5033733;28;20110;-85
2021/09/16 05:19:51;;;;;;;94.22;44.92;;;;;;;18.40;100.00;97513.66;5053597;28;20049;-82
2021/09/16 05:22:18;;;;;;;99.38;46.60;;;;;;;18.36;100.00;97505.38;5052530;28;20055;-82
2021/09/16 05:24:45;;;;;;;100.55;45.83;;;;;;;18.38;100.00;97514.00;5052754;28;20139;-85
2021/09/16 05:27:12;;;;;;;92.20;44.05;;;;;;;18.29;100.00;97510.75;5053975;28;20040;-85
2021/09/16 05:29:49;;;;;;;98.70;44.80;;;;;;;18.11;100.00;97476.78;5053989;28;20056;-85
2021/09/16 05:32:18;;;;;;;95.82;41.63;;;;;;;17.86;100.00;97478.34;5075367;28;20041;-84
2021/09/16 05:34:44;;;;;;;85.63;41.72;;;;;;;17.89;100.00;97485.81;5064391;28;20041;-85
2021/09/16 05:37:11;;;;;;;81.35;40.03;;;;;;;17.99;100.00;97501.63;5040946;28;20060;-85
2021/09/16 05:39:38;;;;;;;86.43;42.30;;;;;;;17.66;100.00;97493.22;5058662;28;20535;-83
2021/09/16 05:42:05;;;;;;;90.28;41.80;;;;;;;17.79;100.00;97511.84;5069295;28;20049;-83
2021/09/16 05:44:31;;;;;;;85.88;40.65;;;;;;;17.54;100.00;97505.16;5052174;28;20040;-86
2021/09/16 05:47:00;;;;;;;80.15;36.88;;;;;;;17.53;100.00;97510.97;5079583;28;20048;-84
2021/09/16 05:49:30;;;;;;;81.53;37.42;;;;;;;17.59;100.00;97506.78;5070297;28;20070;-85
2021/09/16 05:52:00;;;;;;;88.65;38.78;;;;;;;17.43;100.00;97496.69;5053962;28;20108;-85
2021/09/16 05:54:36;;;;;;;86.32;39.97;;;;;;;17.68;100.00;97524.56;5039378;28;20499;-85
2021/09/16 05:57:10;;;;;;;82.28;38.03;;;;;;;17.51;100.00;97516.78;5069293;23;20219;-81
2021/09/16 05:59:37;;;;;;;91.65;40.40;;;;;;;17.58;100.00;97536.09;5093807;28;20048;-80
2021/09/16 06:02:03;;;;;;;94.38;41.10;;;;;;;17.51;100.00;97535.16;5093633;28;20066;-81
2021/09/16 06:04:30;;;;;;;99.63;42.55;;;;;;;17.42;100.00;97538.13;5093293;28;20067;-80
2021/09/16 06:07:03;;;;;;;103.35;43.03;;;;;;;17.34;100.00;97548.13;5092882;28;20047;-81
2021/09/16 06:09:31;;;;;;;110.43;43.28;;;;;;;17.47;100.00;97546.06;5092991;28;20040;-81
2021/09/16 06:12:00;;;;;;;88.78;39.85;;;;;;;17.53;100.00;97552.03;5075135;28;20052;-81
2021/09/16 06:14:26;;;;;;;86.53;37.70;;;;;;;17.51;100.00;97535.94;5093566;28;20427;-81
2021/09/16 06:16:53;;;;;;;79.40;35.28;;;;;;;17.60;100.00;97530.28;5075355;28;20044;-80
2021/09/16 06:19:19;;;;;;;76.90;34.45;;;;;;;17.56;100.00;97537.63;5093691;28;20040;-80
2021/09/16 06:21:46;;;;;;;77.70;34.50;;;;;;;17.58;100.00;97540.78;5094172;28;20050;-80
2021/09/16 06:24:12;;;;;;;69.18;32.40;;;;;;;17.58;100.00;97532.56;5093889;28;20043;-80
2021/09/16 06:49:33;;;;;;;;;;;;;;;;;;;;;
2021/09/16 07:00:01;;;;;;;78.50;35.42;;;;;;;17.78;100.00;97575.97;4988448;28;20472;-83
2021/09/16 07:02:30;;;;;;;77.35;35.55;;;;;;;17.64;100.00;97575.72;4973433;28;20072;-83
2021/09/16 07:04:57;;;;;;;74.93;35.40;;;;;;;17.77;100.00;97579.09;4989718;28;20085;-84
2021/09/16 07:07:24;;;;;;;76.05;35.55;;;;;;;17.66;100.00;97581.63;4952801;28;20046;-83
2021/09/16 07:09:50;;;;;;;73.85;35.53;;;;;;;17.66;100.00;97584.38;4952799;28;20049;-82
2021/09/16 07:12:17;;;;;;;82.07;36.25;;;;;;;17.60;100.00;97579.56;4952818;28;20094;-82
2021/09/16 07:14:44;;;;;;;76.57;34.97;;;;;;;17.62;100.00;97585.47;4970175;28;20043;-83
2021/09/16 07:17:11;;;;;;;82.07;37.13;;;;;;;17.65;100.00;97595.69;4968982;28;20038;-83
2021/09/16 07:19:38;;;;;;;78.80;36.47;;;;;;;17.67;100.00;97587.91;4953159;28;20043;-84
2021/09/16 07:22:04;;;;;;;89.22;38.30;;;;;;;17.67;100.00;97585.97;4971545;28;20055;-84
2021/09/16 07:24:31;;;;;;;91.68;39.50;;;;;;;17.79;100.00;97585.00;4945591;28;20046;-84
2021/09/16 07:26:57;;;;;;;91.95;38.67;;;;;;;17.73;100.00;97595.44;4952745;28;20050;-83
2021/09/16 07:29:24;;;;;;;89.18;39.55;;;;;;;17.63;100.00;97601.50;4952077;28;20051;-84
2021/09/16 07:31:53;;;;;;;82.07;35.45;;;;;;;17.65;100.00;97601.16;4969989;28;20285;-82
2021/09/16 07:34:20;;;;;;;66.13;32.60;;;;;;;17.75;100.00;97606.84;4951708;28;20109;-84
2021/09/16 07:36:48;;;;;;;68.35;31.08;;;;;;;17.78;100.00;97608.06;4970342;28;20051;-83
2021/09/16 07:39:16;;;;;;;64.55;29.58;;;;;;;17.67;100.00;97602.41;4952646;28;20055;-83
2021/09/16 07:41:51;;;;;;;55.03;28.35;;;;;;;17.88;100.00;97602.81;4969875;28;20076;-82
2021/09/16 07:44:18;;;;;;;50.00;24.60;;;;;;;17.90;100.00;97613.38;4969953;28;20459;-84
2021/09/16 07:46:45;;;;;;;37.28;19.40;;;;;;;17.75;100.00;97606.06;4952232;28;20126;-80
2021/09/16 07:49:16;;;;;;;29.90;16.45;;;;;;;17.74;100.00;97618.94;4952913;28;20039;-84
2021/09/16 07:51:42;;;;;;;33.83;17.50;;;;;;;17.79;100.00;97612.38;4970179;28;20491;-84
2021/09/16 07:54:11;;;;;;;23.30;13.52;;;;;;;17.83;100.00;97611.28;4952709;28;20051;-85
2021/09/16 07:56:41;;;;;;;20.15;12.38;;;;;;;17.67;100.00;97626.25;4969831;28;20464;-82
2021/09/16 07:59:08;;;;;;;21.02;12.90;;;;;;;17.74;100.00;97621.69;4953173;28;20046;-82
2021/09/16 08:01:35;;;;;;;19.92;11.32;;;;;;;17.59;100.00;97617.09;4936601;28;20051;-82
2021/09/16 08:04:05;;;;;;;18.48;11.23;;;;;;;17.66;100.00;97617.22;4936489;28;20388;-84
2021/09/16 08:06:32;;;;;;;15.25;9.15;;;;;;;17.60;100.00;97610.44;4970333;28;20058;-84
2021/09/16 08:08:59;;;;;;;15.25;9.07;;;;;;;17.63;100.00;97615.19;4969811;28;20094;-83
2021/09/16 08:11:26;;;;;;;17.15;10.70;;;;;;;17.51;100.00;97620.81;4971363;28;20050;-81
2021/09/16 08:13:52;;;;;;;18.42;10.93;;;;;;;17.39;100.00;97620.94;4970118;28;20038;-83
2021/09/16 08:16:19;;;;;;;19.45;11.57;;;;;;;17.47;100.00;97627.38;4954001;28;20047;-82
2021/09/16 08:18:46;;;;;;;22.45;12.70;;;;;;;17.58;100.00;97626.44;4970286;28;20375;-83
2021/09/16 08:21:15;;;;;;;20.73;11.48;;;;;;;17.37;100.00;97623.22;4970315;28;20525;-84
2021/09/16 08:23:43;;;;;;;22.95;12.23;;;;;;;17.48;100.00;97623.44;4970721;28;20360;-84
2021/09/16 08:26:10;;;;;;;21.65;12.30;;;;;;;17.60;100.00;97631.56;4954262;28;20529;-82
2021/09/16 08:28:36;;;;;;;22.05;11.85;;;;;;;17.52;100.00;97624.34;4952672;28;20547;-83
2021/09/16 08:31:05;;;;;;;19.17;11.10;;;;;;;17.51;100.00;97628.22;4969442;28;20050;-84
2021/09/16 08:33:46;;;;;;;17.00;10.77;;;;;;;17.47;100.00;97625.44;4952929;28;20039;-83
2021/09/16 08:36:13;;;;;;;21.98;12.85;;;;;;;17.52;100.00;97621.59;4970081;28;20047;-83
2021/09/16 08:38:40;;;;;;;19.52;12.23;;;;;;;17.63;100.00;97622.63;4971160;28;20046;-84
2021/09/16 08:41:37;;;;;;;12.45;9.40;;;;;;;17.61;100.00;97625.72;4970340;28;20408;-84
2021/09/16 08:44:28;;;;;;;14.02;9.57;;;;;;;17.68;100.00;97627.84;4953732;28;20606;-84
2021/09/16 08:46:54;;;;;;;15.75;10.73;;;;;;;17.68;100.00;97619.63;4971496;28;20070;-84
2021/09/16 08:49:21;;;;;;;16.10;11.15;;;;;;;17.87;100.00;97623.13;4972154;28;20385;-84
2021/09/16 08:51:48;;;;;;;20.60;11.00;;;;;;;17.99;100.00;97631.16;4972655;28;20065;-84
2021/09/16 08:54:15;;;;;;;15.23;10.25;;;;;;;17.86;100.00;97632.47;4939392;28;20070;-84
2021/09/16 08:56:46;;;;;;;14.40;9.88;;;;;;;17.77;100.00;97625.66;4957751;28;20443;-83
2021/09/16 08:59:37;;;;;;;14.00;9.48;;;;;;;17.81;100.00;97631.97;4960452;28;20067;-84
2021/09/16 09:02:39;;;;;;;11.40;8.40;;;;;;;17.98;100.00;97640.56;4974249;28;20074;-83
2021/09/16 09:40:01;;;;;;;23.75;16.48;;;;;;;17.79;100.00;97646.03;4927246;28;20095;-86
2021/09/16 09:42:52;;;;;;;23.05;13.45;;;;;;;17.47;100.00;97643.78;4973266;28;20042;-84
2021/09/16 09:49:08;;;;;;;19.58;12.60;;;;;;;17.46;100.00;97634.78;4971973;28;20087;-83
2021/09/16 10:03:56;;;;;;;15.25;10.25;;;;;;;17.56;100.00;97638.91;4960858;28;20035;-83
2021/09/16 10:07:01;;;;;;;15.80;10.85;;;;;;;17.56;100.00;97641.66;4958219;28;20052;-84
2021/09/16 10:18:07;;;;;;;14.70;9.80;;;;;;;18.13;100.00;97633.38;4942381;29;20042;-84
2021/09/16 10:21:25;;;;;;;15.45;9.77;;;;;;;17.85;100.00;97635.59;4962781;28;20038;-84
2021/09/16 10:23:57;;;;;;;18.45;9.65;;;;;;;17.97;100.00;97633.47;4971849;28;20062;-84
2021/09/16 10:27:19;;;;;;;15.65;10.40;;;;;;;17.83;100.00;97638.69;4961123;28;20055;-84
2021/09/16 10:29:49;;;;;;;20.15;11.85;;;;;;;17.93;100.00;97640.06;4960038;28;20595;-84
2021/09/16 10:32:26;;;;;;;19.52;12.40;;;;;;;17.64;100.00;97640.63;4971683;28;20067;-82
2021/09/16 10:35:34;;;;;;;21.25;12.32;;;;;;;17.81;100.00;97642.94;4960880;28;20595;-84
2021/09/16 10:38:25;;;;;;;16.52;11.23;;;;;;;17.81;100.00;97642.94;4976777;28;20069;-84
2021/09/16 10:41:13;;;;;;;22.15;11.98;;;;;;;17.68;100.00;97647.00;4971517;28;20106;-84
2021/09/16 10:48:13;;;;;;;19.85;11.77;;;;;;;17.84;100.00;97632.06;4973727;28;20039;-83
2021/09/16 10:54:29;;;;;;;22.77;14.38;;;;;;;17.69;100.00;97638.41;4959923;28;20224;-84
2021/09/16 10:57:38;;;;;;;26.70;16.40;;;;;;;17.56;100.00;97633.44;4974383;28;20055;-84
2021/09/16 11:03:59;;;;;;;22.40;14.52;;;;;;;18.00;100.00;97630.03;4932781;29;20066;-84
2021/09/16 11:06:55;;;;;;;25.30;14.52;;;;;;;17.70;100.00;97641.94;4905155;29;20375;-82
2021/09/16 11:10:05;;;;;;;22.15;15.00;;;;;;;17.73;100.00;97638.50;4920852;29;20071;-83
2021/09/16 11:12:35;;;;;;;24.52;16.23;;;;;;;17.58;100.00;97636.59;4929621;29;20338;-84
2021/09/16 11:15:17;;;;;;;21.55;15.18;;;;;;;17.45;100.00;97644.13;4919947;29;20134;-83
2021/09/16 11:18:25;;;;;;;31.63;17.08;;;;;;;17.44;100.00;97635.16;4916285;29;20052;-84
2021/09/16 11:29:20;;;;;;;31.90;18.67;;;;;;;17.85;100.00;97643.81;4858110;29;20045;-84
2021/09/16 11:35:29;;;;;;;23.27;15.57;;;;;;;17.85;100.00;97635.59;4857131;29;20114;-84
2021/09/16 11:42:20;;;;;;;23.73;15.88;;;;;;;18.16;100.00;97631.88;4885262;29;20040;-84
2021/09/16 11:45:00;;;;;;;24.50;17.27;;;;;;;18.08;100.00;97644.66;4814970;29;20641;-83
2021/09/16 11:47:56;;;;;;;30.63;20.00;;;;;;;17.85;100.00;97647.34;4862104;29;20526;-83
2021/09/16 11:50:28;;;;;;;29.40;20.25;;;;;;;18.07;100.00;97639.53;4842984;29;20049;-83
2021/09/16 11:56:40;;;;;;;26.10;18.75;;;;;;;18.52;100.00;97631.34;4860529;29;20080;-84
2021/09/16 11:59:10;;;;;;;30.17;18.88;;;;;;;18.35;100.00;97640.81;4885304;28;20137;-84
2021/09/16 12:01:36;;;;;;;23.75;16.65;;;;;;;18.28;100.00;97631.69;4956905;28;20042;-84
2021/09/16 12:04:07;;;;;;;28.63;18.25;;;;;;;18.31;100.00;97631.75;4942734;28;20043;-84
2021/09/16 12:06:39;;;;;;;26.75;18.10;;;;;;;18.08;100.00;97630.16;4940197;28;20139;-83
2021/09/16 12:09:20;;;;;;;27.73;19.50;;;;;;;17.78;100.00;97616.28;4953044;28;20070;-84
2021/09/16 12:12:00;;;;;;;28.42;21.45;;;;;;;17.43;100.00;97610.84;4954043;28;20057;-82
2021/09/16 12:15:00;;;;;;;;;;;;;;;17.56;100.00;97627.97;4955284;28;20128;-83
2021/09/16 12:21:10;;;;;;;30.60;21.83;;;;;;;17.61;100.00;97619.47;4956599;28;19993;-83
2021/09/16 12:23:39;;;;;;;28.45;20.65;;;;;;;17.58;100.00;97623.72;4974986;28;20104;-82
2021/09/16 12:27:04;;;;;;;29.48;21.10;;;;;;;17.68;100.00;97627.84;4958170;23;20048;-79
2021/09/16 12:29:35;;;;;;;30.05;21.05;;;;;;;17.63;100.00;97631.63;4998003;28;20143;-80
2021/09/16 12:32:13;;;;;;;26.88;19.52;;;;;;;17.36;100.00;97630.66;5014937;28;20049;-79
2021/09/16 12:34:43;;;;;;;28.02;18.55;;;;;;;17.50;100.00;97641.09;4998403;28;20046;-80
2021/09/16 12:37:19;;;;;;;27.42;18.00;;;;;;;17.23;100.00;97648.38;5024624;28;20064;-79
2021/09/16 12:39:52;;;;;;;27.83;18.23;;;;;;;17.27;100.00;97632.00;4994463;28;20095;-80
2021/09/16 12:42:29;;;;;;;33.15;18.70;;;;;;;17.22;100.00;97638.56;4994554;28;20056;-81
2021/09/16 12:45:06;;;;;;;30.90;19.15;;;;;;;17.41;100.00;97646.81;4978255;28;20171;-80
2021/09/16 12:47:32;;;;;;;27.65;19.33;;;;;;;17.42;100.00;97637.44;4993930;28;20060;-80
2021/09/16 12:50:06;;;;;;;32.03;19.95;;;;;;;17.38;100.00;97639.31;4979338;28;20038;-81
2021/09/16 12:52:35;;;;;;;32.50;20.65;;;;;;;17.09;100.00;97631.63;5013595;28;20233;-82
2021/09/16 12:55:05;;;;;;;33.67;19.60;;;;;;;17.27;100.00;97632.81;4995579;28;20076;-82
2021/09/16 12:57:33;;;;;;;32.20;21.63;;;;;;;17.25;100.00;97629.66;5015553;28;20495;-82
2021/09/16 13:00:16;;;;;;;35.00;22.38;;;;;;;17.20;100.00;97635.41;4997149;28;20038;-79
2021/09/16 13:02:46;;;;;;;34.92;21.25;;;;;;;17.22;100.00;97633.09;4998767;28;20058;-82
2021/09/16 13:05:17;;;;;;;33.03;21.33;;;;;;;17.19;100.00;97642.00;5001325;28;20100;-83
2021/09/16 13:08:02;;;;;;;36.63;22.10;;;;;;;17.07;100.00;97641.34;5000749;28;20048;-83
2021/09/16 13:10:29;;;;;;;35.38;19.83;;;;;;;17.12;100.00;97644.59;5002258;28;20042;-82
2021/09/16 13:13:06;;;;;;;27.50;16.20;;;;;;;17.08;100.00;97632.00;5021263;28;20042;-83
2021/09/16 13:15:34;;;;;;;25.60;17.08;;;;;;;16.86;100.00;97630.72;5002731;28;20056;-82
2021/09/16 13:18:03;;;;;;;28.38;17.80;;;;;;;17.01;100.00;97629.88;4998282;28;20046;-80
2021/09/16 13:20:31;;;;;;;31.80;18.90;;;;;;;16.76;100.00;97625.78;4999313;28;20049;-80
2021/09/16 13:22:58;;;;;;;31.30;20.05;;;;;;;16.69;100.00;97648.28;5017371;28;20037;-81
2021/09/16 13:25:25;;;;;;;32.05;20.17;;;;;;;16.79;100.00;97638.75;5006514;28;20045;-80
2021/09/16 13:27:53;;;;;;;33.92;20.40;;;;;;;16.80;100.00;97637.63;4997934;28;20038;-81
2021/09/16 13:30:20;;;;;;;33.50;20.77;;;;;;;16.89;100.00;97638.19;5015584;28;20049;-80
2021/09/16 13:32:46;;;;;;;33.80;19.73;;;;;;;16.78;100.00;97626.22;5015725;28;20042;-80
2021/09/16 13:35:14;;;;;;;37.72;21.73;;;;;;;16.86;100.00;97638.91;4998267;28;20049;-80